Kumano Maru — JD2155 — position and weather

sailwx.info

Track history (hours):
 
Tides and Currents Weather Stations Pressure Air Temp Water Temp Dewpoint Dewpoint Depression Visibility Wind Speed Wind Dir Waves Ship Positions

Kumano Maru

Last reported at 2018-Jun-21 02:45 UTC. Time now 2018-Jun-22 01:25 UTC.
Position N 34°21' E 134°23'.

Length 65 m.

MMSI: 431402029.

Date/timePositionNaut miles runAvg speedWind from/ knotsBaromVisibWave heightAir tempDewpointWater temp
2018-Jun-21 02:45N 34°21' E 134°23'312.2
2018-Jun-21 02:30N 34°20' E 134°27'15 1.0
2018-Jun-20 10:59N 34°09' E 134°40'1111.0
2018-Jun-20 09:57N 34°18' E 134°31'10 0.2
2018-Jun-18 11:45N 34°26' E 134°25'411.7
2018-Jun-18 11:25N 34°28' E 134°30'511.8
2018-Jun-18 11:01N 34°29' E 134°35'611.8
2018-Jun-18 10:30N 34°32' E 134°42'611.5
2018-Jun-18 10:00N 34°34' E 134°49'710.3
2018-Jun-18 09:19N 34°37' E 134°56'4 8.9
2018-Jun-18 08:51N 34°37' E 135°01'3 7.5
2018-Jun-18 08:31N 34°36' E 135°04'4 8.4
2018-Jun-18 08:00N 34°32' E 135°06'611.1
2018-Jun-18 07:31N 34°27' E 135°07'5 9.1
2018-Jun-18 07:00N 34°22' E 135°09'0 0.1
2018-Jun-18 06:30N 34°22' E 135°09'0 0.0
2018-Jun-18 06:00N 34°22' E 135°09'0 0.0
2018-Jun-18 05:30N 34°22' E 135°09'0 0.0
2018-Jun-18 04:57N 34°22' E 135°09'0 0.0
2018-Jun-18 04:30N 34°22' E 135°09'0 0.0
2018-Jun-18 04:00N 34°22' E 135°09'0 0.0
2018-Jun-18 03:30N 34°22' E 135°09'0 0.0
2018-Jun-18 03:00N 34°22' E 135°09'0 0.0
2018-Jun-18 02:30N 34°22' E 135°09'0 0.0
2018-Jun-18 02:00N 34°22' E 135°09'0 0.0
2018-Jun-18 01:30N 34°22' E 135°09'0 0.0
2018-Jun-18 01:00N 34°22' E 135°09'0 0.0
2018-Jun-18 00:30N 34°22' E 135°09'0 0.0
2018-Jun-18 00:00N 34°22' E 135°09'0 0.0
2018-Jun-17 23:30N 34°22' E 135°09'0 0.0
2018-Jun-17 23:00N 34°22' E 135°09'0 0.0
2018-Jun-17 22:30N 34°22' E 135°09'0 0.0
2018-Jun-17 22:00N 34°22' E 135°09'0 0.0
2018-Jun-17 21:30N 34°22' E 135°09'0 0.0
2018-Jun-17 21:00N 34°22' E 135°09'0 0.0
2018-Jun-17 20:30N 34°22' E 135°09'0 0.0
2018-Jun-17 20:00N 34°22' E 135°09'0 0.0
2018-Jun-17 19:30N 34°22' E 135°09'0 0.0
2018-Jun-17 19:00N 34°22' E 135°09'0 0.0
2018-Jun-17 18:30N 34°22' E 135°09'0 0.0
2018-Jun-17 18:00N 34°22' E 135°09'0 0.0
2018-Jun-17 17:30N 34°22' E 135°09'0 0.0
2018-Jun-17 17:00N 34°22' E 135°09'0 0.0
2018-Jun-17 16:30N 34°22' E 135°09'0 0.0
2018-Jun-17 16:00N 34°22' E 135°09'0 0.1
2018-Jun-17 14:51N 34°22' E 135°09'0 0.0
2018-Jun-17 14:09N 34°22' E 135°09'0 0.0
2018-Jun-17 14:00N 34°22' E 135°09'0 0.0
2018-Jun-17 11:30N 34°22' E 135°09'0 0.0
2018-Jun-17 10:27N 34°22' E 135°09'0 0.1
2018-Jun-17 10:00N 34°22' E 135°09'0 0.0
2018-Jun-17 09:30N 34°22' E 135°09'0 0.1
2018-Jun-17 08:25N 34°22' E 135°09'4 8.7
2018-Jun-17 08:00N 34°21' E 135°05'510.9
2018-Jun-17 07:30N 34°18' E 134°59'4 7.7
2018-Jun-17 07:00N 34°15' E 134°57'611.3
2018-Jun-17 06:30N 34°12' E 134°51'21 2.6
2018-Jun-16 22:12N 33°51' E 134°56'211.4
2018-Jun-16 22:00N 33°50' E 134°58'252 6.9
2018-Jun-15 09:27N 35°15' E 139°46'511.4
2018-Jun-15 09:00N 35°19' E 139°43'611.1
2018-Jun-15 08:30N 35°25' E 139°44'612.1
2018-Jun-15 07:59N 35°29' E 139°50'4 0.3
2018-Jun-14 17:20N 35°31' E 139°55'410.9
2018-Jun-14 16:59N 35°28' E 139°51'510.9
2018-Jun-14 16:30N 35°25' E 139°47'611.3
2018-Jun-14 16:00N 35°19' E 139°44'248 9.3
2018-Jun-13 13:14N 33°50' E 135°03'311.5
2018-Jun-13 13:00N 33°52' E 135°01'611.6
2018-Jun-13 12:29N 33°58' E 135°00'510.7
2018-Jun-13 12:00N 34°04' E 134°60'510.8
2018-Jun-13 11:30N 34°09' E 134°59'510.5
2018-Jun-13 11:00N 34°14' E 134°59'4 8.1
2018-Jun-13 10:30N 34°18' E 134°59'4 8.8
2018-Jun-13 10:00N 34°23' E 134°59'5 9.7
2018-Jun-13 09:30N 34°27' E 135°01'5 9.8
2018-Jun-13 09:00N 34°32' E 135°02'5 7.3
2018-Jun-13 08:22N 34°37' E 135°01'  
Track history (hours):
 
Tides and Currents Weather Stations Pressure Air Temp Water Temp Dewpoint Dewpoint Depression Visibility Wind Speed Wind Dir Waves Ship Positions

Kumano Maru

Last reported at 2018-Jun-21 02:45 UTC. Time now 2018-Jun-22 01:25 UTC.
Position N 34°21' E 134°23'.

Length 65 m.

MMSI: 431402029.

Date/timePositionNaut miles runAvg speedWind from/ knotsBaromVisibWave heightAir tempDewpointWater temp
2018-Jun-21 02:45N 34°21' E 134°23'312.2
2018-Jun-21 02:30N 34°20' E 134°27'15 1.0
2018-Jun-20 10:59N 34°09' E 134°40'1111.0
2018-Jun-20 09:57N 34°18' E 134°31'10 0.2
2018-Jun-18 11:45N 34°26' E 134°25'411.7
2018-Jun-18 11:25N 34°28' E 134°30'511.8
2018-Jun-18 11:01N 34°29' E 134°35'611.8
2018-Jun-18 10:30N 34°32' E 134°42'611.5
2018-Jun-18 10:00N 34°34' E 134°49'710.3
2018-Jun-18 09:19N 34°37' E 134°56'4 8.9
2018-Jun-18 08:51N 34°37' E 135°01'3 7.5
2018-Jun-18 08:31N 34°36' E 135°04'4 8.4
2018-Jun-18 08:00N 34°32' E 135°06'611.1
2018-Jun-18 07:31N 34°27' E 135°07'5 9.1
2018-Jun-18 07:00N 34°22' E 135°09'0 0.1
2018-Jun-18 06:30N 34°22' E 135°09'0 0.0
2018-Jun-18 06:00N 34°22' E 135°09'0 0.0
2018-Jun-18 05:30N 34°22' E 135°09'0 0.0
2018-Jun-18 04:57N 34°22' E 135°09'0 0.0
2018-Jun-18 04:30N 34°22' E 135°09'0 0.0
2018-Jun-18 04:00N 34°22' E 135°09'0 0.0
2018-Jun-18 03:30N 34°22' E 135°09'0 0.0
2018-Jun-18 03:00N 34°22' E 135°09'0 0.0
2018-Jun-18 02:30N 34°22' E 135°09'0 0.0
2018-Jun-18 02:00N 34°22' E 135°09'0 0.0
2018-Jun-18 01:30N 34°22' E 135°09'0 0.0
2018-Jun-18 01:00N 34°22' E 135°09'0 0.0
2018-Jun-18 00:30N 34°22' E 135°09'0 0.0
2018-Jun-18 00:00N 34°22' E 135°09'0 0.0
2018-Jun-17 23:30N 34°22' E 135°09'0 0.0
2018-Jun-17 23:00N 34°22' E 135°09'0 0.0
2018-Jun-17 22:30N 34°22' E 135°09'0 0.0
2018-Jun-17 22:00N 34°22' E 135°09'0 0.0
2018-Jun-17 21:30N 34°22' E 135°09'0 0.0
2018-Jun-17 21:00N 34°22' E 135°09'0 0.0
2018-Jun-17 20:30N 34°22' E 135°09'0 0.0
2018-Jun-17 20:00N 34°22' E 135°09'0 0.0
2018-Jun-17 19:30N 34°22' E 135°09'0 0.0
2018-Jun-17 19:00N 34°22' E 135°09'0 0.0
2018-Jun-17 18:30N 34°22' E 135°09'0 0.0
2018-Jun-17 18:00N 34°22' E 135°09'0 0.0
2018-Jun-17 17:30N 34°22' E 135°09'0 0.0
2018-Jun-17 17:00N 34°22' E 135°09'0 0.0
2018-Jun-17 16:30N 34°22' E 135°09'0 0.0
2018-Jun-17 16:00N 34°22' E 135°09'0 0.1
2018-Jun-17 14:51N 34°22' E 135°09'0 0.0
2018-Jun-17 14:09N 34°22' E 135°09'0 0.0
2018-Jun-17 14:00N 34°22' E 135°09'0 0.0
2018-Jun-17 11:30N 34°22' E 135°09'0 0.0
2018-Jun-17 10:27N 34°22' E 135°09'0 0.1
2018-Jun-17 10:00N 34°22' E 135°09'0 0.0
2018-Jun-17 09:30N 34°22' E 135°09'0 0.1
2018-Jun-17 08:25N 34°22' E 135°09'4 8.7
2018-Jun-17 08:00N 34°21' E 135°05'510.9
2018-Jun-17 07:30N 34°18' E 134°59'4 7.7
2018-Jun-17 07:00N 34°15' E 134°57'611.3
2018-Jun-17 06:30N 34°12' E 134°51'21 2.6
2018-Jun-16 22:12N 33°51' E 134°56'211.4
2018-Jun-16 22:00N 33°50' E 134°58'252 6.9
2018-Jun-15 09:27N 35°15' E 139°46'511.4
2018-Jun-15 09:00N 35°19' E 139°43'611.1
2018-Jun-15 08:30N 35°25' E 139°44'612.1
2018-Jun-15 07:59N 35°29' E 139°50'4 0.3
2018-Jun-14 17:20N 35°31' E 139°55'410.9
2018-Jun-14 16:59N 35°28' E 139°51'510.9
2018-Jun-14 16:30N 35°25' E 139°47'611.3
2018-Jun-14 16:00N 35°19' E 139°44'248 9.3
2018-Jun-13 13:14N 33°50' E 135°03'311.5
2018-Jun-13 13:00N 33°52' E 135°01'611.6
2018-Jun-13 12:29N 33°58' E 135°00'510.7
2018-Jun-13 12:00N 34°04' E 134°60'510.8
2018-Jun-13 11:30N 34°09' E 134°59'510.5
2018-Jun-13 11:00N 34°14' E 134°59'4 8.1
2018-Jun-13 10:30N 34°18' E 134°59'4 8.8
2018-Jun-13 10:00N 34°23' E 134°59'5 9.7
2018-Jun-13 09:30N 34°27' E 135°01'5 9.8
2018-Jun-13 09:00N 34°32' E 135°02'5 7.3
2018-Jun-13 08:22N 34°37' E 135°01'  

Dump ship's entire track history